createdAt,value
2019-05-14T00:02:21.409Z,10.60
2019-05-14T00:04:54.398Z,10.67
2019-05-14T00:07:27.236Z,10.62
2019-05-14T00:10:02.501Z,10.49
2019-05-14T00:12:35.854Z,10.38
2019-05-14T00:15:12.547Z,10.28
2019-05-14T00:17:46.959Z,10.27
2019-05-14T00:20:22.401Z,10.18
2019-05-14T00:22:56.295Z,10.19
2019-05-14T00:25:31.761Z,10.12
2019-05-14T00:28:07.307Z,10.13
2019-05-14T00:30:42.245Z,10.14
2019-05-14T00:33:15.582Z,10.12
2019-05-14T00:35:51.300Z,10.08
2019-05-14T00:38:25.370Z,10.07
2019-05-14T00:40:58.470Z,10.00
2019-05-14T00:43:36.417Z,9.95
2019-05-14T00:46:14.405Z,10.03
2019-05-14T00:48:51.441Z,9.97
2019-05-14T00:51:26.280Z,10.05
2019-05-14T00:54:02.013Z,9.95
2019-05-14T00:56:35.876Z,9.87
2019-05-14T00:59:11.361Z,9.86
2019-05-14T01:01:52.888Z,9.78
2019-05-14T01:04:32.274Z,9.75
2019-05-14T01:07:13.257Z,9.66
2019-05-14T01:10:01.300Z,9.54
2019-05-14T01:12:36.438Z,9.48
2019-05-14T01:15:25.423Z,9.54
2019-05-14T01:17:59.344Z,9.37
2019-05-14T01:20:32.699Z,9.31
2019-05-14T01:23:05.373Z,9.29
2019-05-14T01:25:42.166Z,9.32
2019-05-14T01:28:14.988Z,9.29
2019-05-14T01:30:48.443Z,9.29
2019-05-14T01:33:22.306Z,9.23
2019-05-14T01:35:55.516Z,9.12
2019-05-14T01:38:28.279Z,9.08
2019-05-14T01:41:02.174Z,9.04
2019-05-14T01:43:35.938Z,9.08
2019-05-14T01:46:12.166Z,9.06
2019-05-14T01:48:45.054Z,9.04
2019-05-14T01:51:18.289Z,9.01
2019-05-14T01:53:52.073Z,8.98
2019-05-14T01:56:24.923Z,8.95
2019-05-14T01:58:57.512Z,8.92
2019-05-14T02:01:31.476Z,8.91
2019-05-14T02:04:07.525Z,8.92
2019-05-14T02:06:41.346Z,8.98
2019-05-14T02:09:14.351Z,9.01
2019-05-14T02:11:46.944Z,8.91
2019-05-14T02:14:21.625Z,8.86
2019-05-14T02:16:54.711Z,8.89
2019-05-14T02:19:27.546Z,8.80
2019-05-14T02:22:02.063Z,8.76
2019-05-14T02:24:34.860Z,8.72
2019-05-14T02:27:07.489Z,8.69
2019-05-14T02:29:41.668Z,8.61
2019-05-14T02:32:14.790Z,8.59
2019-05-14T02:34:50.099Z,8.56
2019-05-14T02:37:24.168Z,8.65
2019-05-14T02:39:59.657Z,8.66
2019-05-14T02:42:34.240Z,8.62
2019-05-14T02:45:08.932Z,8.58
2019-05-14T02:47:43.528Z,8.56
2019-05-14T02:50:19.929Z,8.48
2019-05-14T02:52:54.278Z,8.41
2019-05-14T02:55:29.634Z,8.38
2019-05-14T02:58:03.138Z,8.35
2019-05-14T03:00:35.731Z,8.45
2019-05-14T03:03:09.967Z,8.45
2019-05-14T03:05:42.581Z,8.37
2019-05-14T03:08:15.186Z,8.29
2019-05-14T03:10:50.408Z,8.25
2019-05-14T03:13:23.554Z,8.22
2019-05-14T03:15:59.046Z,8.06
2019-05-14T03:18:32.421Z,8.10
2019-05-14T03:21:04.928Z,8.15
2019-05-14T03:23:39.388Z,8.14
2019-05-14T03:26:11.975Z,8.03
2019-05-14T03:28:49.479Z,8.00
2019-05-14T03:31:23.206Z,7.96
2019-05-14T03:34:02.022Z,7.95
2019-05-14T03:36:36.084Z,8.03
2019-05-14T03:39:10.577Z,8.13
2019-05-14T03:41:43.783Z,8.04
2019-05-14T03:44:19.711Z,8.16
2019-05-14T03:46:55.511Z,8.04
2019-05-14T03:49:31.289Z,8.06
2019-05-14T03:52:03.955Z,8.05
2019-05-14T03:54:36.578Z,8.05
2019-05-14T03:57:09.650Z,8.08
2019-05-14T03:59:42.881Z,8.10
2019-05-14T04:02:19.607Z,8.08
2019-05-14T04:04:53.680Z,8.06
2019-05-14T04:07:26.187Z,8.09
2019-05-14T04:09:59.778Z,8.09
2019-05-14T04:12:32.777Z,8.12
2019-05-14T04:15:09.592Z,8.16
2019-05-14T04:17:45.582Z,8.19
2019-05-14T04:20:19.747Z,8.29
2019-05-14T04:22:52.755Z,8.24
2019-05-14T04:25:25.268Z,8.23
2019-05-14T04:27:59.713Z,8.16
2019-05-14T04:30:33.519Z,8.11
2019-05-14T04:33:10.366Z,8.11
2019-05-14T04:35:43.462Z,8.11
2019-05-14T04:38:15.999Z,8.15
2019-05-14T04:40:49.408Z,8.24
2019-05-14T04:43:25.741Z,8.28
2019-05-14T04:45:59.599Z,8.39
2019-05-14T04:48:37.539Z,8.37
2019-05-14T04:51:19.606Z,8.37
2019-05-14T04:53:54.888Z,8.38
2019-05-14T04:56:30.128Z,8.44
2019-05-14T04:59:03.482Z,8.52
2019-05-14T05:01:39.925Z,8.55
2019-05-14T05:04:12.912Z,8.65
2019-05-14T05:06:49.958Z,8.61
2019-05-14T05:09:29.053Z,8.59
2019-05-14T05:12:05.268Z,8.61
2019-05-14T05:15:31.011Z,8.64
2019-05-14T05:18:18.827Z,8.77
2019-05-14T05:20:54.225Z,8.85
2019-05-14T05:23:38.063Z,9.00
2019-05-14T05:26:13.440Z,9.04
2019-05-14T05:29:01.759Z,9.05
2019-05-14T05:31:55.287Z,9.20
2019-05-14T05:34:28.916Z,9.16
2019-05-14T05:37:02.276Z,9.17
2019-05-14T05:39:35.411Z,9.23
2019-05-14T05:42:09.354Z,9.40
2019-05-14T05:44:42.331Z,9.49
2019-05-14T05:47:14.825Z,9.57
2019-05-14T05:49:49.395Z,9.72
2019-05-14T05:52:23.975Z,9.77
2019-05-14T05:54:58.440Z,9.89
2019-05-14T05:57:32.497Z,10.04
2019-05-14T06:00:09.418Z,9.98
2019-05-14T06:02:43.705Z,9.99
2019-05-14T06:05:18.692Z,10.03
2019-05-14T06:07:52.322Z,10.13
2019-05-14T06:10:29.082Z,10.17
2019-05-14T06:13:02.036Z,10.20
2019-05-14T06:15:45.552Z,10.29
2019-05-14T06:18:22.138Z,10.28
2019-05-14T06:20:58.309Z,10.24
2019-05-14T06:23:31.545Z,10.34
2019-05-14T06:26:04.087Z,10.43
2019-05-14T06:28:40.876Z,10.52
2019-05-14T06:31:14.716Z,10.56
2019-05-14T06:33:49.239Z,10.65
2019-05-14T06:36:22.369Z,10.64
2019-05-14T06:38:58.436Z,10.67
2019-05-14T06:41:33.060Z,10.64
2019-05-14T06:44:09.043Z,10.58
2019-05-14T06:46:41.864Z,10.67
2019-05-14T06:49:19.920Z,10.71
2019-05-14T06:51:53.987Z,10.76
2019-05-14T06:54:29.116Z,10.76
2019-05-14T06:57:02.641Z,10.82
2019-05-14T06:59:38.751Z,10.90
2019-05-14T07:02:13.743Z,11.08
2019-05-14T07:04:48.495Z,11.20
2019-05-14T07:07:23.835Z,11.27
2019-05-14T07:09:59.999Z,11.36
2019-05-14T07:12:32.521Z,11.44
2019-05-14T07:15:09.058Z,11.53
2019-05-14T07:17:48.792Z,11.66
2019-05-14T07:20:22.287Z,11.68
2019-05-14T07:22:55.891Z,11.83
2019-05-14T07:25:32.407Z,11.96
2019-05-14T07:28:08.853Z,12.06
2019-05-14T07:30:42.719Z,12.11
2019-05-14T07:33:18.204Z,12.22
2019-05-14T07:38:28.266Z,12.32
2019-05-14T07:41:01.248Z,12.43
2019-05-14T07:43:33.785Z,12.49
2019-05-14T07:46:08.490Z,12.55
2019-05-14T07:48:43.474Z,12.59
2019-05-14T07:51:19.022Z,12.71
2019-05-14T07:53:51.799Z,12.80
2019-05-14T07:56:24.320Z,12.85
2019-05-14T07:58:58.549Z,12.90
2019-05-14T08:01:35.340Z,12.98
2019-05-14T08:04:11.102Z,13.10
2019-05-14T08:06:44.711Z,13.19
2019-05-14T08:09:21.504Z,13.30
2019-05-14T08:11:55.039Z,13.44
2019-05-14T08:14:29.428Z,13.54
2019-05-14T08:17:08.618Z,13.65
2019-05-14T08:19:41.343Z,13.68
2019-05-14T08:22:14.861Z,13.73
2019-05-14T08:24:49.083Z,13.79
2019-05-14T08:27:27.960Z,13.93
2019-05-14T08:30:08.215Z,14.00
2019-05-14T08:32:42.034Z,14.07
2019-05-14T08:35:14.537Z,14.14
2019-05-14T08:37:49.250Z,14.23
2019-05-14T08:40:22.401Z,14.38
2019-05-14T08:42:58.213Z,14.41
2019-05-14T08:45:30.952Z,14.57
2019-05-14T08:48:04.740Z,14.70
2019-05-14T08:50:41.819Z,14.79
2019-05-14T08:53:18.572Z,14.85
2019-05-14T08:55:53.203Z,14.95
2019-05-14T08:58:30.210Z,15.16
2019-05-14T09:01:08.287Z,15.39
2019-05-14T09:03:43.642Z,15.53
2019-05-14T09:06:18.584Z,15.70
2019-05-14T09:09:01.316Z,15.92
2019-05-14T09:11:36.439Z,16.14
2019-05-14T09:14:22.209Z,16.37
2019-05-14T09:17:00.163Z,16.56
2019-05-14T09:19:33.360Z,16.64
2019-05-14T09:22:09.388Z,16.67
2019-05-14T09:24:43.364Z,16.62
2019-05-14T09:27:19.263Z,16.57
2019-05-14T09:29:55.307Z,16.53
2019-05-14T09:32:29.351Z,16.71
2019-05-14T09:35:02.408Z,16.92
2019-05-14T09:37:35.004Z,17.13
2019-05-14T09:40:19.496Z,17.36
2019-05-14T09:42:53.645Z,17.47
2019-05-14T09:45:28.144Z,17.56
2019-05-14T09:48:01.448Z,17.52
2019-05-14T09:50:38.333Z,17.55
2019-05-14T09:53:12.597Z,17.49
2019-05-14T09:55:46.340Z,17.35
2019-05-14T09:58:20.322Z,17.41
2019-05-14T10:00:58.841Z,17.46
2019-05-14T10:03:32.853Z,17.59
2019-05-14T10:06:09.483Z,17.63
2019-05-14T10:08:44.419Z,17.51
2019-05-14T10:11:17.574Z,17.54
2019-05-14T10:13:51.091Z,17.75
2019-05-14T10:16:23.589Z,17.91
2019-05-14T10:18:57.008Z,18.02
2019-05-14T10:21:30.546Z,17.87
2019-05-14T10:24:03.812Z,17.80
2019-05-14T10:26:40.918Z,18.00
2019-05-14T10:29:14.488Z,18.30
2019-05-14T10:31:48.592Z,18.60
2019-05-14T10:34:21.329Z,18.75
2019-05-14T10:36:54.611Z,18.94
2019-05-14T10:39:29.564Z,18.64
2019-05-14T10:42:03.049Z,18.35
2019-05-14T10:44:38.775Z,18.26
2019-05-14T10:47:13.560Z,18.13
2019-05-14T10:49:47.275Z,18.27
2019-05-14T10:52:20.129Z,18.43
2019-05-14T10:55:04.100Z,18.78
2019-05-14T10:57:39.071Z,19.21
2019-05-14T11:00:15.486Z,19.63
2019-05-14T11:02:53.267Z,20.03
2019-05-14T11:05:28.215Z,20.45
2019-05-14T11:08:18.883Z,20.75
2019-05-14T11:10:54.062Z,20.84
2019-05-14T11:13:29.293Z,21.13
2019-05-14T11:16:02.212Z,21.20
2019-05-14T11:18:39.971Z,21.15
2019-05-14T11:21:23.049Z,21.17
2019-05-14T11:23:59.199Z,21.20
2019-05-14T11:26:32.725Z,21.50
2019-05-14T11:29:07.864Z,21.85
2019-05-14T11:31:41.216Z,21.82
2019-05-14T11:34:19.245Z,22.02
2019-05-14T11:36:52.117Z,22.10
2019-05-14T11:39:31.915Z,22.00
2019-05-14T11:42:05.334Z,22.16
2019-05-14T11:44:38.774Z,22.31
2019-05-14T11:47:11.268Z,22.49
2019-05-14T11:49:45.428Z,22.49
2019-05-14T11:52:18.605Z,22.23
2019-05-14T11:54:52.590Z,22.17
2019-05-14T11:57:25.246Z,22.29
2019-05-14T11:59:58.716Z,22.49
2019-05-14T12:02:38.274Z,22.86
2019-05-14T12:05:13.457Z,22.91
2019-05-14T12:07:47.076Z,22.95
2019-05-14T12:10:20.161Z,22.68
2019-05-14T12:12:54.930Z,22.62
2019-05-14T12:15:27.692Z,22.65
2019-05-14T12:18:01.518Z,22.95
2019-05-14T12:20:35.442Z,23.08
2019-05-14T12:23:09.029Z,23.36
2019-05-14T12:25:41.795Z,23.56
2019-05-14T12:28:14.475Z,23.57
2019-05-14T12:30:50.663Z,23.34
2019-05-14T12:33:23.927Z,23.28
2019-05-14T12:36:00.544Z,23.18
2019-05-14T12:38:33.839Z,23.26
2019-05-14T12:41:09.357Z,23.29
2019-05-14T12:43:43.865Z,23.44
2019-05-14T12:46:16.864Z,23.69
2019-05-14T12:48:50.471Z,23.71
2019-05-14T12:51:24.323Z,23.75
2019-05-14T12:53:58.280Z,23.48
2019-05-14T12:56:31.048Z,23.52
2019-05-14T12:59:04.510Z,23.57
2019-05-14T13:01:37.728Z,23.50
2019-05-14T13:04:11.079Z,23.37
2019-05-14T13:06:43.572Z,23.34
2019-05-14T13:09:21.587Z,23.06
2019-05-14T13:11:54.497Z,23.05
2019-05-14T13:14:28.791Z,23.21
2019-05-14T13:17:03.969Z,23.38
2019-05-14T13:19:39.044Z,23.48
2019-05-14T13:22:15.043Z,23.69
2019-05-14T13:24:50.940Z,23.86
2019-05-14T13:27:28.597Z,23.90
2019-05-14T13:30:04.432Z,23.90
2019-05-14T13:32:39.486Z,23.75
2019-05-14T13:35:13.975Z,23.68
2019-05-14T13:37:49.940Z,23.51
2019-05-14T13:40:24.982Z,23.76
2019-05-14T13:42:59.133Z,24.07
2019-05-14T13:45:31.768Z,24.24
2019-05-14T13:48:08.510Z,24.18
2019-05-14T13:50:44.408Z,24.26
2019-05-14T13:53:19.471Z,24.19
2019-05-14T13:55:57.544Z,24.23
2019-05-14T13:58:32.210Z,23.89
2019-05-14T14:01:12.228Z,23.61
2019-05-14T14:03:58.447Z,23.56
2019-05-14T14:06:39.361Z,23.31
2019-05-14T14:09:13.415Z,23.20
2019-05-14T14:11:48.243Z,23.10
2019-05-14T14:14:21.981Z,23.03
2019-05-14T14:16:54.475Z,23.09
2019-05-14T14:19:31.598Z,23.14
2019-05-14T14:22:09.931Z,23.01
2019-05-14T14:24:49.745Z,22.92
2019-05-14T14:27:29.922Z,22.86
2019-05-14T14:30:09.284Z,22.53
2019-05-14T14:32:45.818Z,22.27
2019-05-14T14:35:23.316Z,22.25
2019-05-14T14:37:59.265Z,22.16
2019-05-14T14:40:33.363Z,22.20
2019-05-14T14:43:05.978Z,22.31
2019-05-14T14:45:44.997Z,22.51
2019-05-14T14:48:20.604Z,22.77
2019-05-14T14:50:55.154Z,22.80
2019-05-14T14:53:43.024Z,22.88
2019-05-14T14:56:25.596Z,22.89
2019-05-14T14:59:00.290Z,22.96
2019-05-14T15:01:40.342Z,22.92
2019-05-14T15:04:40.432Z,23.04
2019-05-14T15:07:29.456Z,23.25
2019-05-14T15:10:04.210Z,23.11
2019-05-14T15:12:40.071Z,23.05
2019-05-14T15:15:14.345Z,23.04
2019-05-14T15:17:48.367Z,23.10
2019-05-14T15:20:22.014Z,23.16
2019-05-14T15:23:00.051Z,23.11
2019-05-14T15:25:33.699Z,23.15
2019-05-14T15:28:09.234Z,23.22
2019-05-14T15:30:43.894Z,23.17
2019-05-14T15:33:18.958Z,23.14
2019-05-14T15:35:51.622Z,22.93
2019-05-14T15:38:30.254Z,22.73
2019-05-14T15:41:05.164Z,22.57
2019-05-14T15:43:39.521Z,22.62
2019-05-14T15:46:13.467Z,22.33
2019-05-14T15:48:48.713Z,22.21
2019-05-14T15:51:23.573Z,22.13
2019-05-14T15:54:11.137Z,22.18
2019-05-14T15:56:50.641Z,22.34
2019-05-14T15:59:23.315Z,22.62
2019-05-14T16:01:55.938Z,22.86
2019-05-14T16:04:29.163Z,22.93
2019-05-14T16:07:02.463Z,22.60
2019-05-14T16:09:39.758Z,22.50
2019-05-14T16:12:14.619Z,22.41
2019-05-14T16:14:49.020Z,22.39
2019-05-14T16:17:25.319Z,22.33
2019-05-14T16:19:59.127Z,22.29
2019-05-14T16:22:31.795Z,22.16
2019-05-14T16:25:05.104Z,22.22
2019-05-14T16:27:39.798Z,22.29
2019-05-14T16:30:16.060Z,22.15
2019-05-14T16:32:48.707Z,21.79
2019-05-14T16:35:22.160Z,21.57
2019-05-14T16:37:54.693Z,21.57
2019-05-14T16:40:29.689Z,21.35
2019-05-14T16:43:04.158Z,21.27
2019-05-14T16:45:39.673Z,21.13
2019-05-14T16:48:14.104Z,20.95
2019-05-14T16:50:48.986Z,20.88
2019-05-14T16:53:25.570Z,20.90
2019-05-14T16:56:00.371Z,20.99
2019-05-14T16:58:33.751Z,21.03
2019-05-14T17:01:09.745Z,20.94
2019-05-14T17:03:45.064Z,20.73
2019-05-14T17:06:18.885Z,20.47
2019-05-14T17:08:51.816Z,20.13
2019-05-14T17:11:28.237Z,19.92
2019-05-14T17:14:02.859Z,19.72
2019-05-14T17:16:36.411Z,19.60
2019-05-14T17:19:10.805Z,19.44
2019-05-14T17:21:45.004Z,19.33
2019-05-14T17:24:20.027Z,19.28
2019-05-14T17:26:54.283Z,19.06
2019-05-14T17:29:28.626Z,18.79
2019-05-14T17:32:02.960Z,18.66
2019-05-14T17:34:38.685Z,18.47
2019-05-14T17:37:12.845Z,18.31
2019-05-14T17:39:45.848Z,18.28
2019-05-14T17:42:19.379Z,18.19
2019-05-14T17:44:59.526Z,18.11
2019-05-14T17:47:32.067Z,18.21
2019-05-14T17:50:06.187Z,18.17
2019-05-14T17:52:44.303Z,18.14
2019-05-14T17:55:19.050Z,18.08
2019-05-14T17:57:58.240Z,18.01
2019-05-14T18:00:33.281Z,17.94
2019-05-14T18:03:09.558Z,18.00
2019-05-14T18:05:44.212Z,17.90
2019-05-14T18:08:19.158Z,17.76
2019-05-14T18:10:52.331Z,17.67
2019-05-14T18:13:24.949Z,17.58
2019-05-14T18:15:58.098Z,17.49
2019-05-14T18:18:33.180Z,17.45
2019-05-14T18:21:05.808Z,17.41
2019-05-14T18:23:42.121Z,17.47
2019-05-14T18:26:22.546Z,17.40
2019-05-14T18:28:58.429Z,17.30
2019-05-14T18:31:44.498Z,17.25
2019-05-14T18:34:19.418Z,17.18
2019-05-14T18:36:55.413Z,17.17
2019-05-14T18:39:29.726Z,17.19
2019-05-14T18:42:02.613Z,17.17
2019-05-14T18:44:35.428Z,17.01
2019-05-14T18:47:09.024Z,16.88
2019-05-14T18:49:41.729Z,16.84
2019-05-14T18:52:15.257Z,16.82
2019-05-14T18:54:48.817Z,16.65
2019-05-14T18:57:23.389Z,16.53
2019-05-14T18:59:58.974Z,16.48
2019-05-14T19:02:33.483Z,16.51
2019-05-14T19:05:09.047Z,16.31
2019-05-14T19:07:43.092Z,16.21
2019-05-14T19:10:18.543Z,16.11
2019-05-14T19:12:51.557Z,16.01
2019-05-14T19:15:27.718Z,16.05
2019-05-14T19:18:01.414Z,16.07
2019-05-14T19:20:34.635Z,15.89
2019-05-14T19:23:14.522Z,15.74
2019-05-14T19:25:48.331Z,15.62
2019-05-14T19:28:21.219Z,15.53
2019-05-14T19:30:56.097Z,15.45
2019-05-14T19:33:34.999Z,15.36
2019-05-14T19:36:08.816Z,15.27
2019-05-14T19:38:43.607Z,15.15
2019-05-14T19:41:20.970Z,15.00
2019-05-14T19:43:56.386Z,14.89
2019-05-14T19:46:33.239Z,14.77
2019-05-14T19:49:19.704Z,14.69
2019-05-14T19:51:52.415Z,14.57
2019-05-14T19:54:25.111Z,14.45
2019-05-14T19:57:00.942Z,14.33
2019-05-14T19:59:34.407Z,14.22
2019-05-14T20:02:09.543Z,14.10
2019-05-14T20:04:43.275Z,14.01
2019-05-14T20:07:18.069Z,13.97
2019-05-14T20:09:51.703Z,13.86
2019-05-14T20:12:24.409Z,13.79
2019-05-14T20:14:58.352Z,13.74
2019-05-14T20:17:31.229Z,13.68
2019-05-14T20:20:05.656Z,13.61
2019-05-14T20:22:39.882Z,13.54
2019-05-14T20:25:14.128Z,13.50
2019-05-14T20:27:50.536Z,13.43
2019-05-14T20:30:24.944Z,13.35
2019-05-14T20:33:08.400Z,13.24
2019-05-14T20:35:48.478Z,13.16
2019-05-14T20:38:27.348Z,13.25
2019-05-14T20:41:03.226Z,13.09
2019-05-14T20:43:38.907Z,13.14
2019-05-14T20:46:13.304Z,13.03
2019-05-14T20:48:48.435Z,12.92
2019-05-14T20:51:21.843Z,12.80
2019-05-14T20:53:55.280Z,12.69
2019-05-14T20:56:28.388Z,12.60
2019-05-14T20:59:01.848Z,12.49
2019-05-14T21:01:35.754Z,12.40
2019-05-14T21:04:10.755Z,12.30
2019-05-14T21:06:49.482Z,12.39
2019-05-14T21:09:32.532Z,12.28
2019-05-14T21:12:08.379Z,12.24
2019-05-14T21:14:44.689Z,12.31
2019-05-14T21:17:19.288Z,12.36
2019-05-14T21:19:53.459Z,12.25
2019-05-14T21:22:29.056Z,12.20
2019-05-14T21:25:05.440Z,12.10
2019-05-14T21:27:47.878Z,12.04
2019-05-14T21:30:23.700Z,11.91
2019-05-14T21:33:00.417Z,11.82
2019-05-14T21:35:35.890Z,11.81
2019-05-14T21:38:10.308Z,11.74
2019-05-14T21:40:45.222Z,11.66
2019-05-14T21:43:18.996Z,11.61
2019-05-14T21:45:58.637Z,11.70
2019-05-14T21:48:38.738Z,11.57
2019-05-14T21:51:13.878Z,11.44
2019-05-14T21:53:48.264Z,11.39
2019-05-14T21:56:22.285Z,11.33
2019-05-14T21:59:18.935Z,11.27
2019-05-14T22:02:03.808Z,11.32
2019-05-14T22:04:42.205Z,11.18
2019-05-14T22:07:18.495Z,11.10
2019-05-14T22:09:55.605Z,11.08
2019-05-14T22:12:39.669Z,11.13
2019-05-14T22:15:18.474Z,10.95
2019-05-14T22:18:20.074Z,10.85
2019-05-14T22:20:55.256Z,10.84
2019-05-14T22:23:29.631Z,10.84
2019-05-14T22:26:03.683Z,10.77
2019-05-14T22:28:37.720Z,10.72
2019-05-14T22:31:11.902Z,10.59
2019-05-14T22:33:45.874Z,10.55
2019-05-14T22:36:21.377Z,10.55
2019-05-14T22:38:57.942Z,10.52
2019-05-14T22:41:33.071Z,10.46
2019-05-14T22:44:09.532Z,10.43
2019-05-14T22:46:43.877Z,10.40
2019-05-14T22:49:19.117Z,10.42
2019-05-14T22:51:52.508Z,10.32
2019-05-14T22:54:25.447Z,10.25
2019-05-14T22:56:59.002Z,10.18
2019-05-14T22:59:32.908Z,10.08
2019-05-14T23:02:08.422Z,10.06
2019-05-14T23:04:44.359Z,10.03
2019-05-14T23:07:18.984Z,10.14
2019-05-14T23:09:53.607Z,10.03
2019-05-14T23:12:28.580Z,9.97
2019-05-14T23:15:03.180Z,9.94
2019-05-14T23:17:38.810Z,9.91
2019-05-14T23:20:12.708Z,9.88
2019-05-14T23:22:49.214Z,9.89
2019-05-14T23:25:25.359Z,9.84
2019-05-14T23:27:58.951Z,9.79
2019-05-14T23:30:32.811Z,9.75
2019-05-14T23:33:07.312Z,9.67
2019-05-14T23:35:40.005Z,9.61
2019-05-14T23:38:12.681Z,9.71
2019-05-14T23:40:45.324Z,9.64
2019-05-14T23:43:18.584Z,9.56
2019-05-14T23:45:52.128Z,9.55
2019-05-14T23:48:24.645Z,9.60
2019-05-14T23:50:58.483Z,9.63
2019-05-14T23:53:31.850Z,9.72
2019-05-14T23:56:05.075Z,9.64
2019-05-14T23:58:37.683Z,9.57
